Dyess AFB, Texas
Current Conditions -  °F | °C
As of 9:58 PM on Thursday 18 Dec 2014 (Local Time) from KDYS Reporting Station
Scattered Clouds Scattered Clouds  
Wind Chill: 42°   Ceiling: Unl
Heat Index: 45°   Visibility: 10mi
Dew Point: 39°   Wind: 6mph
Humidity: 80%   Direction: 70°ENE
Pressure: 30.15"   Gusts: NA
Location:  32.42°N, 99.82°W
Report Text: KDYS 190358Z 07005KT 10SM SCT012 07/04 A3015 RMK AO2A SLP202 T00710039
Loading
Personal Weather Stations






























Interactive Weather Map New forecast layout! Learn more

10-Day Weather Forecast

Advertisements
Track Severe Weather on mobile